Wyoming, Illinois
Current Conditions -  °F | °C
As of 12:15 PM on Monday 26 Jan 2015 (Local Time) from KC75 Reporting Station
Light Snow Light Snow  
Wind Chill: -4°   Ceiling: 600
Heat Index: -4°   Visibility: 1.5mi
Dew Point: -6°   Wind: 3mph
Humidity: 87%   Direction: 190°S
Pressure: 29.9"   Gusts: NA
Location:  41.06°N, 89.77°W
Report Text: KC75 261815Z AUTO 19003KT 1 1/2SM -SN OVC006 M04/M06 A2990 RMK AO2 T10421061
Loading
Personal Weather Stations






























Interactive Weather Map New forecast layout! Learn more

10-Day Weather Forecast

Advertisements
Track Severe Weather on mobile